Hauptseite
METAR-TAF:

METAR-TAF

Flughäfen :

Boscombe Down, England

MoD Boscombe Down

Breite: 51-10N, Länge: 001-45W, Höhe: 124 m

Beobachtung

Neuester Wetterbericht von vor 28 Minuten, um 00:50 UTC
Wind 7 kt aus Süd/Südwest
Temperatur 2°C
Luftfeuchtigkeit 93%
Luftdruck 1008 hPa
Sichtweite 10 km oder mehr

METAR: EGDM 200050Z AUTO 21007KT 9999 OVC100/// 02/01 Q1008

Zeit: 01:18 (01:18 UTC)

Prognose

Neuester Wetterbericht von vor 12 Stunden und 2 Minuten, um 13:16 UTC
Gültige Prognose vom 19 um 15 UTC bis 19 um 18 UTC
Wind 12 kt aus West
Sichtweite 10 km oder mehr
Leicht bewölkt in der Höhe von 2000 ft
Wahrscheinlichkeit 30% :
Zeitweise
vom 19 um 15 UTC bis 19 um 17 UTC
Wind 15 kt aus West, Böen bis zu 25 kt
Sichtweite: 7000 m
Aufgelockert bewölkt in der Höhe von 2000 ft
Regenschauer

TAF: EGDM 191316Z 1915/1918 26012KT 9999 FEW020 PROB30 TEMPO 1915/1917 26015G25KT 7000 -SHRA SCT020

Wetterbeobachtungen und Prognosen von mehr als 4000 Flughäfen (METAR und TAF Bericht).

Die verfügbaren Stationen werden durch gelbe und rote Markierungen auf der Karte dargestellt.

Führen Sie die Maus auf sie, um den Namen der Station zu sehen.

Darauf klicken, um die Beobachtung von Wetterbeobachtungen und Prognosen zu sehen.

Um die Karte zu ändern : klicken Sie auf den grünen Tasten mit einem schwarzen Kreuz Zum Vergrößern, auf den grünen Button mit einem Gedankenstrich zu verkleinern, oder auf die grünen Pfeile für benachbarte Karten.


METAR-TAF: